This is the latest recevied weather packets stored in our database for station/object XE2AD-5. If no packets are shown the sender has not sent any weather packets the latest 10 day(s).
| Time | Temp. | Humidity | Pressure | Rain* | Wind** | Luminosity | Snow |
|---|---|---|---|---|---|---|---|
| 1788470449 | 23.89° C | 52% | 808.2 hPa | - | - | - | - |
| 1788467149 | 23.89° C | 52% | 809 hPa | - | - | - | - |
| 1788444046 | 22.22° C | 55% | 812.3 hPa | - | - | - | - |
| 1788440745 | 22.78° C | 55% | 811.9 hPa | - | - | - | - |
| 1788434145 | 22.78° C | 55% | 811.2 hPa | - | - | - | - |
| 1788430845 | 22.78° C | 55% | 811.2 hPa | - | - | - | - |
| 1788427545 | 23.33° C | 54% | 811.3 hPa | - | - | - | - |
| 1788424245 | 23.33° C | 54% | 811.7 hPa | - | - | - | - |
| 1788420944 | 23.33° C | 54% | 812.3 hPa | - | - | - | - |
| 1788417644 | 23.89° C | 54% | 812.7 hPa | - | - | - | - |
| 1788414344 | 23.89° C | 54% | 812.7 hPa | - | - | - | - |
| 1788411044 | 23.89° C | 53% | 812.3 hPa | - | - | - | - |
| 1788407744 | 24.44° C | 53% | 812.4 hPa | - | - | - | - |
| 1788404444 | 25.56° C | 52% | 811.5 hPa | - | - | - | - |
| 1788401144 | 25.56° C | 52% | 810.7 hPa | - | - | - | - |
| 1788381216 | 23.89° C | 53% | 810.3 hPa | - | - | - | - |
| 1788377916 | 23.33° C | 54% | 811.2 hPa | - | - | - | - |
| 1788374616 | 22.78° C | 57% | 811.9 hPa | - | - | - | - |
| 1788371316 | 22.22° C | 54% | 812.4 hPa | - | - | - | - |
| 1788368015 | 21.67° C | 55% | 812.6 hPa | - | - | - | - |
| 1788364715 | 21.67° C | 55% | 812.8 hPa | - | - | - | - |
| 1788358115 | 22.22° C | 55% | 812.8 hPa | - | - | - | - |
| 1788354815 | 22.22° C | 54% | 812.7 hPa | - | - | - | - |
| 1788351515 | 22.22° C | 54% | 812.6 hPa | - | - | - | - |
| 1788348214 | 22.22° C | 54% | 812.7 hPa | - | - | - | - |
* Rain since midnight (hover to see other rain measurements)
** Current wind speed in m/s (hover to see current wind gust speed)